ROMMA est une association bénévole à but non lucratif. Votre soutien est indispensable : ADHERER à ROMMA ou FAIRE un DON

Lyon - (69, Rhône)

Plaine lyonnaise (169 m)   Longitude: 04° 49' 55" E   Latitude: 45° 43' 50" N Station partenaire n°124
 

Détail journalier du     <<     >>

Température Precipitation Humidité Pression Vent Dir Rafale Dir. rafale Ensol.
Heure (°C) (mm) (%) (hPa) (km/h) (km/h) (min)
01:00 20.2069101613N32N0
02:00 19.6070101511N29N0
03:00 19.2071101511N27N0
04:00 19.0070101511N39N0
05:00 19.1069101413N40N0
06:00 19.4066101412N39N0
07:00 19.8064101312N34N0
08:00 19.7065101413N42N0
09:00 19.7066101412N32N0
10:00 20.7064101416N40S40
11:00 22.1061101417SO45SO60
12:00 23.1057101319SO50SO60
13:00 23.8056101323S48S60
14:00 24.6053101222SO51SO60
15:00 25.1050101024S68S60
16:00 25.4050100924SO50SO60
17:00 24.8052100922SE55S40
18:00 23.9057100918SO58S30
19:00 23.3060100915SE48S40
20:00 22.7064100914S34SO0
21:00 22.2065100917S43N0
22:00 22.1065100815S43SO0
23:00 22.4061100822SE53S0
minuit 22.3060100816SO50SO0

Graphique du 14-10-2019

 

Serveur OMMA